Змеиново

Карта отелей и гостиниц, располагающихся рядом с аэропортом Змеиново :

Змеиново Иркутская область 57° 46' 31.9188" N, 108° 18' 34.0812" E
Змеиново Иркутская область 57° 46' 31.9188" N, 108° 18' 34.0812" E
Код аэродрома ИКАО
UIKZ
Код аэродрома RU
УИКЗ
Координаты
N57.77553° E108.30947°
Превышение над уровнем моря
250
Основная полоса
Курс магнитный
Длина основной ВПП
Ширина основной ВПП
Покрытие основной ВПП
Освещение ВПП
Тип: 
Вертодром
Класс аэродрома: 
Принадлежность: 
ГА
Статус: 
Недействующий
Сайт: 
E-mail аэродрома: 
Страна: 
Россия
Регион: 
Иркутская область
Город: 
Дополнительная информация: 

Найти трансфер

С помощью этой формы Вы можете найти трансфер из аэропорта Змеиново в город, аэропорт или вокзал:

Карта места

Javascript is required to view this map.

Погода в аэропортах:

Авиационная погода в Перми

Регион: 
Погода METAR: 
USPP 171830Z 30002MPS 280V340 9999 -RA BKN024 05/05 Q1009 R21/290250 TEMPO 2200 -RA BKN011 RMK QFE746
Время наблюдения
2021-09-17T18:30:00Z
Температура C
5.0
Точка росы
5.0
Направление ветра
300
Скорость ветра (узлы)
4
Метео видимость
6.21
Явления погоды
-RA
Условия полета
MVFR
Аэропорт подробнее: 

Авиационная погода в Ханты-Мансийске

Регион: 
Погода METAR: 
USHH 171830Z 29004MPS 250V320 9999 -RA BKN018 05/05 Q0990 R24/290050 TEMPO 3100 -RA BKN004
Время наблюдения
2021-09-17T18:30:00Z
Температура C
5.0
Точка росы
5.0
Направление ветра
290
Скорость ветра (узлы)
8
Метео видимость
6.21
Явления погоды
-RA
Условия полета
MVFR
Аэропорт подробнее: 

Авиационная погода в Уральске

Регион: 
Погода METAR: 
UARR 171830Z 22002MPS 9999 -RA BKN040 08/04 Q1017 R22/CLRD70 NOSIG RMK QFE759/1012
Время наблюдения
2021-09-17T18:30:00Z
Температура C
8.0
Точка росы
4.0
Направление ветра
220
Скорость ветра (узлы)
4
Метео видимость
6.21
Явления погоды
-RA
Условия полета
VFR
Аэропорт подробнее: 

Авиационная погода в Воронеже

Регион: 
Погода METAR: 
UUOO 171830Z 07003MPS 9999 -SHRA BKN///CB 10/07 Q1017 R12/290160 NOSIG RMK QFE749
Время наблюдения
2021-09-17T18:30:00Z
Температура C
10.0
Точка росы
7.0
Направление ветра
70
Скорость ветра (узлы)
6
Метео видимость
6.21
Явления погоды
-SHRA
Условия полета
Аэропорт подробнее: